Skip Navigation LinksHome page > Weather > Current weather Skip Navigation Links

Current Weather

Watsonville Muni, Watsonville, Calif.

For information only: do not use for flight planning or navigation.
Latest weather
Observation time Monday, January 18, 2021 11:53 PM PST
Local time Tuesday, January 19, 2021 12:13 AM PST
Flight conditions Visual Meteorological Conditions
Winds
Wind speed calm
Visibility 10 mi.
Sky condition
Ceiling unlimited
Sky clear
Temperature 62°F
Dewpoint 14°F
Altimeter 29.81 in.Hg
Derived measurements
Relative humidity 15%
Density altitude 542 ft.
Sea-level pressure 29.80 in.Hg
Climate data
Temperature minimum, last 24 hours 42°F
Temperature maximum, last 24 hours 79°F
Remarks
Fully automated report.
System requires maintenance.
Automated weather observing station with precipitation discriminator.
METAR KWVI 190753Z AUTO 00000KT 10SM CLR 17/M10 A2981 RMK AO2 SLP091 T01671100 402610056 $

Settings

Location code

InnerDrive.Weather 4.0.6770.0 Release CLR 4.0.30319.42000
Copyright ©2018 Inner Drive Technology. All rights reserved. Portions Copyright ©1986-2018 David Braverman.

Find weather

Site navigation


Skip Navigation Links

Place info

Page info

PayPal - The safer, easier way to pay online!

Return home.

Copyright ©2021 Inner Drive Technology. Purveyors of fine, hand-crafted computer software. Page printed 2021-01-19T08:13:10 UTC.